Impacts TAF Board INFO
FOR SITUATIONAL AWARENESS. NOT TO BE USED FOR FLIGHT PLANNING PURPOSES.
IDs:

KBOS - Boston/Logan Intl, MA, US

Issued at 0026 UTC 13 Dec 2017
Updated at 0336 UTC 13 Dec 2017
Potential Impact None Slight Moderate High
Time0254Z 13/04Z 13/05Z 13/06Z 13/07Z 13/08Z 13/09Z 13/10Z 13/11Z 13/12Z 13/13Z 13/14Z 13/15Z 13/16Z>>
Type OBS PRVL PRVL PRVL PRVL PRVL PRVL PRVL PRVL PRVL PRVL PRVL PRVL PRVL
VIS 10 >6 >6 >6 >6 >6 >6 >6 >6 >6 >6 >6 >6 >6
CIG 70 70 70 70 70 70 70 70 70 -- -- -- -- 50
Cover BKN OVC OVC OVC OVC OVC OVC OVC OVC SCT SCT SCT SCT BKN
FltCat VFR VFR VFR VFR VFR VFR VFR VFR VFR VFR VFR VFR VFR VFR
WX -- -- -- -- -- -- -- -- -- -- -- -- -- --
WDir 290 260 260 260 260 260 260 260 260 270 270 270 270 270
WSpd 10 12 12 12 12 12 12 12 12 14 14 14 14 17
WGst -- 22 22 22 22 22 22 22 22 27 27 27 27 30

Raw TAF
KBOS 130026Z 1300/1406 27012G22KT 6SM BR VCSH OVC015
  TEMPO 1300/1301 3SM RA OVC008
  FM130300 26012G22KT P6SM OVC070
  FM131200 27014G27KT P6SM SCT090
  FM131600 27017G30KT P6SM BKN050
  FM132300 27018G36KT P6SM FEW150


Raw METAR
KBOS 130254Z 29010KT 10SM SCT007 BKN070 02/01 A2927 RMK AO2 PRESFR SLP910 60002 T00170006 58016
KBOS 130245Z 29011KT 10SM SCT007 BKN070 02/01 A2928 RMK AO2 T00170006
KBOS 130154Z 29011KT 10SM FEW021 SCT039 BKN080 02/01 A2928 RMK AO2 RAE30 SLP915 P0002 T00220011
KBOS 130110Z 29008KT 7SM -RA FEW006 SCT025 OVC039 03/02 A2930 RMK AO2 P0001 T00280022
KBOS 130054Z 30010KT 6SM -RA BR SCT009 BKN014 OVC031 03/02 A2931 RMK AO2 PK WND 28027/2357 WSHFT 2347 RAB41 SLP923 P0000 T00280022
KBOS 130048Z 30012KT 6SM RA BR SCT009 BKN014 OVC031 03/02 A2931 RMK AO2 PK WND 28027/2357 WSHFT 2347 RAB41 P0000

METAR Board
Radar Display
Forecast Discussion

FOR SITUATIONAL AWARENESS. NOT TO BE USED FOR FLIGHT PLANNING PURPOSES.